Time;durP1;ratioP1;P1;durP2;ratioP2;P2;SDS_P1;SDS_P2;PMS_P1;PMS_P2;Temp;Humidity;BMP_temperature;BMP_pressure;BME280_temperature;BME280_humidity;BME280_pressure;Samples;Min_cycle;Max_cycle;Signal;HPM_P1;HPM_P2
2022/07/24 00:02:23;;;;;;;33.30;19.40;;;;;;;17.59;100.00;102029.63;7381429;19;20034;-75
2022/07/24 00:04:56;;;;;;;30.80;18.92;;;;;;;17.58;100.00;102033.16;7375818;19;20050;-74
2022/07/24 00:07:27;;;;;;;36.53;19.38;;;;;;;17.56;100.00;102028.72;7377427;19;20138;-76
2022/07/24 00:09:59;;;;;;;35.88;20.77;;;;;;;17.53;100.00;102023.41;7379312;19;20090;-76
2022/07/24 00:12:30;;;;;;;36.08;20.17;;;;;;;17.51;100.00;102025.16;7374279;19;20015;-75
2022/07/24 00:15:00;;;;;;;34.78;18.75;;;;;;;17.49;100.00;102024.28;7382602;19;20010;-77
2022/07/24 00:17:30;;;;;;;41.20;22.17;;;;;;;17.48;100.00;102014.56;7379146;19;20015;-76
2022/07/24 00:20:00;;;;;;;38.20;20.35;;;;;;;17.48;100.00;102009.25;7379781;19;20019;-76
2022/07/24 00:22:30;;;;;;;34.53;19.40;;;;;;;17.47;100.00;102018.09;7379219;19;20021;-76
2022/07/24 00:25:03;;;;;;;34.33;20.65;;;;;;;17.44;100.00;102018.06;7380067;19;20090;-77
2022/07/24 00:27:33;;;;;;;38.72;21.08;;;;;;;17.42;100.00;102023.38;7379603;19;20026;-76
2022/07/24 00:30:03;;;;;;;37.97;20.67;;;;;;;17.41;100.00;102028.66;7377407;19;20056;-76
2022/07/24 00:32:33;;;;;;;42.28;22.48;;;;;;;17.37;100.00;102026.88;7375305;19;20140;-77
2022/07/24 00:35:03;;;;;;;30.75;19.33;;;;;;;17.35;100.00;102026.00;7378905;19;20018;-78
2022/07/24 00:37:32;;;;;;;37.45;21.27;;;;;;;17.32;100.00;102027.75;7378831;19;20697;-75
2022/07/24 00:40:06;;;;;;;37.58;20.27;;;;;;;17.30;100.00;102025.97;7378153;19;20013;-76
2022/07/24 00:42:36;;;;;;;34.92;20.13;;;;;;;17.30;100.00;102032.16;7377777;19;20041;-76
2022/07/24 00:45:06;;;;;;;35.13;19.58;;;;;;;17.30;100.00;102025.97;7376607;19;20011;-75
2022/07/24 00:47:53;;;;;;;36.30;20.92;;;;;;;17.29;100.00;102026.84;7378107;19;20059;-78
2022/07/24 00:50:26;;;;;;;;;;;;;;;17.27;100.00;102032.16;7379076;19;20070;-77
2022/07/24 00:52:58;;;;;;;38.13;21.30;;;;;;;17.27;100.00;102025.97;7371828;19;19922;-77
2022/07/24 00:55:34;;;;;;;36.55;21.08;;;;;;;17.24;100.00;102026.84;7379150;19;20038;-76
2022/07/24 00:58:05;;;;;;;35.30;20.05;;;;;;;17.24;100.00;102024.19;7378966;19;20026;-76
2022/07/24 01:00:35;;;;;;;41.15;21.77;;;;;;;17.23;100.00;102017.09;7379377;19;20429;-76
2022/07/24 01:03:06;;;;;;;39.15;22.05;;;;;;;17.24;100.00;102010.91;7380380;19;20006;-76
2022/07/24 01:05:36;;;;;;;40.83;20.20;;;;;;;17.25;100.00;102012.69;7375270;19;20030;-75
2022/07/24 01:08:06;;;;;;;33.15;18.63;;;;;;;17.29;100.00;102022.44;7376024;19;20070;-76
2022/07/24 01:10:39;;;;;;;32.22;17.00;;;;;;;17.30;100.00;102013.59;7375011;19;20018;-76
2022/07/24 01:13:10;;;;;;;27.20;15.33;;;;;;;17.35;100.00;101996.81;7377925;19;20015;-76
2022/07/24 01:15:41;;;;;;;28.60;14.73;;;;;;;17.35;100.00;101996.81;7378877;19;20034;-76
2022/07/24 01:18:10;;;;;;;25.10;14.07;;;;;;;17.36;100.00;101998.59;7374796;19;20060;-77
2022/07/24 01:20:48;;;;;;;22.48;12.88;;;;;;;17.36;100.00;101996.84;7377586;19;20018;-76
2022/07/24 01:23:18;;;;;;;22.25;11.85;;;;;;;17.43;100.00;102003.03;7377980;19;20010;-75
2022/07/24 01:25:48;;;;;;;19.52;10.85;;;;;;;17.45;100.00;102002.16;7378884;19;20006;-76
2022/07/24 01:28:18;;;;;;;21.33;10.65;;;;;;;17.45;100.00;101993.31;7377745;19;20006;-77
2022/07/24 01:30:49;;;;;;;19.23;9.70;;;;;;;17.47;100.00;102002.16;7376717;19;20010;-76
2022/07/24 01:33:19;;;;;;;20.10;9.40;;;;;;;17.48;100.00;102001.28;7379651;19;20010;-75
2022/07/24 01:35:51;;;;;;;17.13;8.85;;;;;;;17.49;100.00;101995.09;7378796;19;20138;-76
2022/07/24 01:38:21;;;;;;;18.00;9.13;;;;;;;17.47;100.00;102002.16;7372022;19;20513;-76
2022/07/24 01:40:51;;;;;;;16.08;8.90;;;;;;;17.50;100.00;102004.84;7377141;19;20215;-76
2022/07/24 01:43:21;;;;;;;25.05;9.82;;;;;;;17.49;100.00;102000.41;7376822;19;20522;-76
2022/07/24 01:45:51;;;;;;;18.95;10.20;;;;;;;17.48;100.00;101998.63;7372811;19;20543;-76
2022/07/24 01:48:21;;;;;;;18.90;9.38;;;;;;;17.47;100.00;102000.41;7374369;19;20445;-75
2022/07/24 01:50:54;;;;;;;15.20;8.98;;;;;;;17.44;100.00;101996.84;7375872;19;20439;-76
2022/07/24 01:53:24;;;;;;;16.48;7.65;;;;;;;17.43;100.00;101992.44;7367531;19;20011;-76
2022/07/24 01:55:55;;;;;;;18.13;8.88;;;;;;;17.39;100.00;101988.88;7376915;19;20006;-76
2022/07/24 01:58:25;;;;;;;19.92;8.85;;;;;;;17.37;100.00;101989.75;7376150;19;20024;-76
2022/07/24 02:00:55;;;;;;;17.90;8.43;;;;;;;17.36;100.00;101982.69;7363618;19;20089;-75
2022/07/24 02:03:25;;;;;;;15.88;7.90;;;;;;;17.36;100.00;101990.63;7373323;19;20094;-76
2022/07/24 02:05:58;;;;;;;19.45;8.73;;;;;;;17.31;100.00;101991.50;7372844;19;20190;-76
2022/07/24 02:08:31;;;;;;;17.87;8.53;;;;;;;17.31;100.00;101990.63;7373511;19;20358;-76
2022/07/24 02:11:01;;;;;;;19.67;9.35;;;;;;;17.26;100.00;101982.66;7373259;19;20633;-75
2022/07/24 02:13:34;;;;;;;18.05;9.05;;;;;;;17.26;100.00;101982.66;7375955;19;20090;-76
2022/07/24 02:16:03;;;;;;;17.98;8.50;;;;;;;17.26;100.00;101974.69;7376173;19;20031;-76
2022/07/24 02:18:33;;;;;;;17.27;8.07;;;;;;;17.26;100.00;101973.81;7375829;19;20029;-75
2022/07/24 02:21:06;;;;;;;14.98;8.20;;;;;;;17.21;100.00;101973.78;7375638;19;20036;-76
2022/07/24 02:23:36;;;;;;;18.27;8.70;;;;;;;17.21;100.00;101971.16;7373844;19;20031;-75
2022/07/24 02:26:06;;;;;;;22.55;8.48;;;;;;;17.19;100.00;101970.25;7375491;19;20010;-75
2022/07/24 02:28:36;;;;;;;16.83;8.32;;;;;;;17.18;100.00;101968.47;7373235;19;20007;-75
2022/07/24 02:31:06;;;;;;;13.32;7.78;;;;;;;17.15;100.00;101964.94;7373636;19;20006;-76
2022/07/24 02:33:36;;;;;;;15.63;7.88;;;;;;;17.10;100.00;101964.91;7376058;19;20040;-76
2022/07/24 02:36:09;;;;;;;15.50;8.13;;;;;;;17.07;100.00;101969.31;7373057;19;20023;-76
2022/07/24 02:38:41;;;;;;;15.15;7.68;;;;;;;17.03;100.00;101963.09;7373608;19;20006;-76
2022/07/24 02:41:11;;;;;;;17.83;8.13;;;;;;;17.00;100.00;101963.09;7373966;19;20010;-76
2022/07/24 02:43:41;;;;;;;16.35;8.05;;;;;;;16.95;100.00;101967.50;7371568;19;20084;-76
2022/07/24 02:46:11;;;;;;;17.60;8.38;;;;;;;16.94;100.00;101961.31;7374769;19;20014;-76
2022/07/24 02:48:41;;;;;;;18.33;8.13;;;;;;;16.92;100.00;101957.75;7373644;19;20019;-75
2022/07/24 02:51:14;;;;;;;17.27;9.15;;;;;;;16.88;100.00;101955.97;7370952;19;20487;-76
2022/07/24 02:53:44;;;;;;;17.50;8.93;;;;;;;16.83;100.00;101960.34;7369029;19;20014;-75
2022/07/24 02:56:14;;;;;;;17.60;8.63;;;;;;;16.79;100.00;101953.28;7370682;19;20031;-77
2022/07/24 02:58:45;;;;;;;17.65;7.65;;;;;;;16.76;100.00;101949.72;7376799;19;20039;-76
2022/07/24 03:01:17;;;;;;;18.88;9.88;;;;;;;16.75;100.00;101945.31;7374725;19;20089;-77
2022/07/24 03:03:47;;;;;;;18.20;9.18;;;;;;;16.72;100.00;101942.63;7372144;19;20333;-77
2022/07/24 03:06:20;;;;;;;19.13;8.68;;;;;;;16.68;100.00;101945.25;7375205;19;20027;-76
2022/07/24 03:08:50;;;;;;;23.30;10.70;;;;;;;16.72;100.00;101942.63;7371496;19;20010;-75
2022/07/24 03:11:20;;;;;;;17.58;9.75;;;;;;;16.69;100.00;101935.56;7372917;19;20007;-75
2022/07/24 03:13:50;;;;;;;15.65;9.05;;;;;;;16.72;100.00;101935.56;7375210;19;20133;-76
2022/07/24 03:16:20;;;;;;;22.33;9.77;;;;;;;16.70;100.00;101936.44;7374544;19;20125;-75
2022/07/24 03:18:50;;;;;;;19.27;9.63;;;;;;;16.66;100.00;101935.53;7379212;19;20040;-76
2022/07/24 03:21:23;;;;;;;19.00;9.10;;;;;;;16.64;100.00;101937.25;7383462;19;20538;-76
2022/07/24 03:24:15;;;;;;;19.50;9.30;;;;;;;16.59;100.00;101931.97;7381366;19;20026;-76
2022/07/24 03:26:47;;;;;;;16.35;9.18;;;;;;;16.57;100.00;101919.59;7381277;19;20006;-76
2022/07/24 03:29:17;;;;;;;15.77;9.35;;;;;;;16.54;100.00;101916.94;7380237;19;20461;-76
2022/07/24 03:31:47;;;;;;;17.92;9.30;;;;;;;16.51;100.00;101919.56;7376089;19;20082;-76
2022/07/24 03:34:17;;;;;;;19.20;8.63;;;;;;;16.52;100.00;101922.22;7381507;19;20035;-76
2022/07/24 03:36:50;;;;;;;18.50;8.60;;;;;;;16.49;100.00;101916.91;7379780;19;20091;-75
2022/07/24 03:39:20;;;;;;;21.10;9.60;;;;;;;16.47;100.00;101921.28;7382488;19;20015;-75
2022/07/24 03:41:50;;;;;;;16.60;8.40;;;;;;;16.45;100.00;101927.47;7379073;19;20039;-77
2022/07/24 03:44:20;;;;;;;17.90;9.10;;;;;;;16.43;100.00;101927.44;7379967;19;20589;-75
2022/07/24 03:46:50;;;;;;;19.52;8.90;;;;;;;16.42;100.00;101925.69;7381759;19;20022;-76
2022/07/24 03:49:20;;;;;;;16.95;8.65;;;;;;;16.36;100.00;101923.00;7379149;19;20402;-75
2022/07/24 03:51:54;;;;;;;17.23;8.00;;;;;;;16.37;100.00;101922.13;7380586;19;20021;-76
2022/07/24 03:54:24;;;;;;;16.17;8.57;;;;;;;16.37;100.00;101926.53;7372148;19;20007;-77
2022/07/24 03:56:54;;;;;;;18.60;8.05;;;;;;;16.35;100.00;101931.81;7381025;19;20014;-77
2022/07/24 03:59:24;;;;;;;16.88;8.38;;;;;;;16.35;100.00;101926.50;7378859;19;20018;-76
2022/07/24 04:01:55;;;;;;;16.67;7.38;;;;;;;16.33;100.00;101931.81;7380288;19;20006;-76
2022/07/24 04:04:27;;;;;;;16.65;7.43;;;;;;;16.34;100.00;101928.28;7380015;19;20477;-77
2022/07/24 04:07:00;;;;;;;14.63;7.25;;;;;;;16.34;100.00;101922.09;7383343;19;20014;-75
2022/07/24 04:09:30;;;;;;;16.08;7.68;;;;;;;16.35;100.00;101919.47;7381444;19;20317;-75
2022/07/24 04:12:02;;;;;;;14.10;7.22;;;;;;;16.37;100.00;101918.59;7379049;19;20031;-75
2022/07/24 04:14:35;;;;;;;12.55;6.15;;;;;;;16.37;100.00;101918.59;7383454;19;20051;-76
2022/07/24 04:17:05;;;;;;;14.88;7.22;;;;;;;16.39;100.00;101920.38;7383112;19;20039;-77
2022/07/24 04:19:36;;;;;;;14.00;6.28;;;;;;;16.39;100.00;101909.78;7387313;19;20007;-76
2022/07/24 04:22:09;;;;;;;11.07;6.35;;;;;;;16.43;100.00;101913.31;7386911;19;20007;-77
2022/07/24 04:24:39;;;;;;;;;;;;;;;16.45;100.00;101904.53;7388252;19;20017;-77
2022/07/24 04:27:09;;;;;;;15.10;6.13;;;;;;;16.45;100.00;101904.53;7384262;19;19922;-76
2022/07/24 04:29:39;;;;;;;14.88;6.43;;;;;;;16.46;100.00;101913.34;7385752;19;20026;-76
2022/07/24 04:32:09;;;;;;;13.68;6.25;;;;;;;16.49;100.00;101916.00;7388191;19;20023;-76
2022/07/24 04:34:39;;;;;;;14.13;7.25;;;;;;;16.49;100.00;101919.53;7388379;19;20010;-76
2022/07/24 04:37:12;;;;;;;12.85;6.53;;;;;;;16.50;100.00;101921.31;7389535;19;20007;-77
2022/07/24 04:39:42;;;;;;;12.47;5.33;;;;;;;16.55;100.00;101926.66;7390713;19;20018;-76
2022/07/24 04:42:14;;;;;;;12.57;5.72;;;;;;;16.59;100.00;101924.03;7388849;19;20018;-77
2022/07/24 04:44:44;;;;;;;11.02;5.18;;;;;;;16.61;100.00;101916.97;7389618;19;20017;-77
2022/07/24 04:47:14;;;;;;;11.82;5.40;;;;;;;16.63;100.00;101930.22;7387461;19;20474;-77
2022/07/24 04:49:44;;;;;;;10.15;6.07;;;;;;;16.67;100.00;101930.25;7386612;19;20085;-77
2022/07/24 04:52:17;;;;;;;11.13;5.68;;;;;;;16.71;100.00;101930.25;7377850;19;20003;-77
2022/07/24 04:54:47;;;;;;;11.63;5.75;;;;;;;16.74;100.00;101923.22;7382316;19;20010;-78
2022/07/24 04:57:18;;;;;;;10.80;5.43;;;;;;;16.77;100.00;101925.00;7384084;19;20039;-77
2022/07/24 04:59:48;;;;;;;10.35;5.50;;;;;;;16.86;100.00;101925.94;7383111;19;20492;-78
2022/07/24 05:02:18;;;;;;;10.30;5.47;;;;;;;16.98;100.00;101927.75;7379519;19;20018;-76
2022/07/24 05:04:47;;;;;;;9.43;5.05;;;;;;;17.09;100.00;101933.97;7381494;19;20018;-77
2022/07/24 05:07:20;;;;;;;9.73;5.18;;;;;;;17.25;100.00;101937.56;7380406;19;20011;-77
2022/07/24 05:09:50;;;;;;;11.70;5.22;;;;;;;17.40;100.00;101942.03;7378292;19;20043;-77
2022/07/24 05:12:20;;;;;;;10.60;4.60;;;;;;;17.58;100.00;101934.13;7376441;19;20006;-77
2022/07/24 05:14:50;;;;;;;9.52;5.07;;;;;;;17.76;100.00;101926.19;7380185;19;20006;-78
2022/07/24 05:17:20;;;;;;;10.93;4.70;;;;;;;17.97;100.00;101926.22;7377110;19;20014;-77
2022/07/24 05:19:50;;;;;;;8.35;4.55;;;;;;;18.17;100.00;101930.63;7377895;19;20014;-77
2022/07/24 05:22:22;;;;;;;10.95;5.07;;;;;;;18.35;100.00;101938.56;7375707;19;20498;-77
2022/07/24 05:24:53;;;;;;;9.60;5.18;;;;;;;18.55;100.00;101936.78;7374910;19;20006;-76
2022/07/24 05:27:24;;;;;;;9.77;4.72;;;;;;;18.76;100.00;101946.47;7380014;19;20021;-77
2022/07/24 05:29:54;;;;;;;10.82;5.20;;;;;;;18.89;100.00;101947.31;7374853;19;20039;-77
2022/07/24 05:32:23;;;;;;;11.80;5.13;;;;;;;19.06;100.00;101950.78;7377509;19;20017;-76
2022/07/24 05:34:53;;;;;;;8.63;5.13;;;;;;;19.26;100.00;101946.28;7375292;19;20076;-77
2022/07/24 05:37:25;;;;;;;11.23;5.18;;;;;;;19.41;100.00;101947.97;7379379;19;20548;-77
2022/07/24 05:39:55;;;;;;;10.95;5.07;;;;;;;19.63;100.00;101947.88;7373169;19;20486;-77
2022/07/24 05:42:26;;;;;;;13.02;6.90;;;;;;;19.89;100.00;101948.53;7377628;19;20520;-77
2022/07/24 05:44:56;;;;;;;10.02;5.47;;;;;;;20.03;100.00;101949.31;7376798;19;20452;-77
2022/07/24 05:47:26;;;;;;;13.48;5.50;;;;;;;20.30;100.00;101941.97;7374036;19;20202;-77
2022/07/24 05:49:56;;;;;;;13.55;5.38;;;;;;;20.05;100.00;101936.88;7375590;19;20108;-77
2022/07/24 05:52:29;;;;;;;12.60;5.70;;;;;;;19.91;100.00;101947.63;7369743;19;20506;-77
2022/07/24 05:54:59;;;;;;;9.80;5.38;;;;;;;20.02;100.00;101941.34;7374743;19;20013;-76
2022/07/24 05:57:30;;;;;;;12.73;5.40;;;;;;;20.37;100.00;101944.56;7375338;19;20014;-76
2022/07/24 06:00:00;;;;;;;13.45;6.30;;;;;;;20.35;100.00;101950.81;7375549;19;20014;-78
2022/07/24 06:02:30;;;;;;;9.80;5.50;;;;;;;20.91;99.95;101942.22;7375242;19;20027;-78
2022/07/24 06:05:00;;;;;;;12.27;5.32;;;;;;;21.12;96.76;101936.63;7375927;19;20395;-77
2022/07/24 06:07:33;;;;;;;9.50;5.15;;;;;;;21.52;94.52;101936.09;7373262;19;20018;-77
2022/07/24 06:10:03;;;;;;;10.90;5.50;;;;;;;21.62;93.68;101943.06;7376721;19;20044;-77
2022/07/24 06:12:33;;;;;;;10.50;5.00;;;;;;;21.74;90.53;101937.56;7370832;19;20010;-77
2022/07/24 06:15:05;;;;;;;8.93;5.30;;;;;;;21.48;91.84;101940.59;7376256;19;20022;-77
2022/07/24 06:17:34;;;;;;;10.70;4.80;;;;;;;21.17;92.50;101941.91;7373832;19;20006;-78
2022/07/24 06:20:06;;;;;;;9.35;4.95;;;;;;;21.10;92.91;101938.44;7376064;19;20086;-77
2022/07/24 06:22:39;;;;;;;11.13;5.15;;;;;;;21.05;91.99;101940.25;7377017;19;20010;-77
2022/07/24 06:25:16;;;;;;;10.93;5.25;;;;;;;21.13;92.22;101948.16;7372045;19;20042;-76
2022/07/24 06:27:49;;;;;;;10.10;5.65;;;;;;;21.38;92.55;101948.75;7372897;19;20018;-77
2022/07/24 06:30:21;;;;;;;10.07;4.57;;;;;;;21.10;91.17;101951.75;7374607;19;20018;-77
2022/07/24 06:32:51;;;;;;;8.75;4.47;;;;;;;21.27;91.48;101950.69;7373677;19;20075;-77
2022/07/24 06:35:22;;;;;;;10.38;5.30;;;;;;;21.46;91.92;101950.44;7375471;19;19999;-77
2022/07/24 06:37:55;;;;;;;10.23;5.05;;;;;;;21.54;91.27;101948.53;7371857;19;20010;-76
2022/07/24 06:40:25;;;;;;;9.77;4.97;;;;;;;21.74;89.20;101942.91;7374014;19;20007;-75
2022/07/24 06:42:55;;;;;;;10.10;4.63;;;;;;;21.95;88.45;101941.63;7373996;19;20010;-76
2022/07/24 06:45:25;;;;;;;8.95;4.60;;;;;;;21.94;87.16;101944.34;7374851;19;20610;-76
2022/07/24 06:47:54;;;;;;;11.57;5.45;;;;;;;22.17;88.75;101952.88;7373706;19;20015;-75
2022/07/24 06:50:24;;;;;;;10.63;4.80;;;;;;;22.17;86.49;101952.88;7374250;19;20018;-77
2022/07/24 06:52:57;;;;;;;9.88;4.40;;;;;;;22.27;86.97;101942.91;7373114;19;20016;-77
2022/07/24 06:55:27;;;;;;;7.70;4.65;;;;;;;22.60;85.65;101946.78;7381700;19;20011;-77
2022/07/24 06:57:57;;;;;;;7.60;4.07;;;;;;;22.65;82.70;101943.09;7381712;19;20009;-76
2022/07/24 07:00:27;;;;;;;9.40;4.25;;;;;;;23.04;82.90;101932.50;7380310;19;20014;-77
2022/07/24 07:02:57;;;;;;;6.32;3.85;;;;;;;22.81;82.15;101935.69;7382866;19;20014;-78
2022/07/24 07:05:27;;;;;;;7.43;3.92;;;;;;;22.47;82.72;101936.31;7381810;19;20475;-77
2022/07/24 07:08:00;;;;;;;9.10;4.70;;;;;;;22.90;82.76;101946.16;7382818;19;20018;-78
2022/07/24 07:10:30;;;;;;;8.43;4.15;;;;;;;23.10;80.31;101943.97;7381186;19;20056;-79
2022/07/24 07:13:00;;;;;;;9.15;4.15;;;;;;;23.46;81.14;101941.41;7380750;19;20014;-78
2022/07/24 07:15:30;;;;;;;10.93;4.90;;;;;;;23.62;78.24;101937.50;7380624;19;20011;-78
2022/07/24 07:18:00;;;;;;;8.70;4.40;;;;;;;22.93;80.51;101931.84;7378073;19;20014;-78
2022/07/24 07:20:33;;;;;;;8.18;4.35;;;;;;;23.39;78.37;101926.38;7381887;19;20010;-79
2022/07/24 07:23:06;;;;;;;6.05;3.75;;;;;;;24.00;76.12;101927.59;7381922;19;20022;-79
2022/07/24 07:25:37;;;;;;;6.90;3.78;;;;;;;24.16;75.35;101928.09;7383554;19;20393;-78
2022/07/24 07:28:07;;;;;;;9.18;4.20;;;;;;;24.38;74.40;101946.28;7380042;19;20475;-78
2022/07/24 07:30:37;;;;;;;9.70;4.05;;;;;;;24.44;73.11;101946.13;7383206;19;20070;-79
2022/07/24 07:33:07;;;;;;;7.75;3.90;;;;;;;24.56;71.44;101944.03;7381303;19;20007;-78
2022/07/24 07:35:37;;;;;;;8.05;3.50;;;;;;;24.70;71.96;101937.38;7383487;19;20006;-79
2022/07/24 07:38:09;;;;;;;11.68;5.18;;;;;;;24.74;70.19;101940.84;7382008;19;20010;-78
2022/07/24 07:40:40;;;;;;;7.18;3.70;;;;;;;25.04;69.01;101939.97;7381233;19;20044;-78
2022/07/24 07:43:10;;;;;;;6.45;3.92;;;;;;;24.95;68.43;101932.19;7381798;19;20010;-78
2022/07/24 07:45:40;;;;;;;7.07;4.00;;;;;;;25.30;67.73;101935.63;7382455;19;20022;-78
2022/07/24 07:48:10;;;;;;;7.45;3.78;;;;;;;25.47;67.24;101929.75;7380223;19;20018;-78
2022/07/24 07:50:40;;;;;;;9.25;4.07;;;;;;;25.55;67.60;101933.94;7385396;19;20543;-77
2022/07/24 07:53:13;;;;;;;9.63;4.03;;;;;;;25.26;64.72;101931.28;7375368;19;20022;-78
2022/07/24 07:55:51;;;;;;;7.53;3.95;;;;;;;25.42;65.14;101927.19;7383725;19;20014;-78
2022/07/24 07:58:26;;;;;;;6.82;3.28;;;;;;;25.74;65.68;101924.41;7380151;19;20035;-78
2022/07/24 08:00:56;;;;;;;7.97;4.13;;;;;;;25.49;64.24;101920.72;7383107;19;20011;-77
2022/07/24 08:03:26;;;;;;;8.15;3.70;;;;;;;25.91;64.77;101918.47;7384578;19;20013;-78
2022/07/24 08:05:56;;;;;;;7.63;3.83;;;;;;;25.98;63.00;101913.75;7386404;19;20602;-77
2022/07/24 08:08:30;;;;;;;8.70;3.72;;;;;;;26.14;61.55;101911.41;7383394;19;19999;-77
2022/07/24 08:11:03;;;;;;;6.50;4.00;;;;;;;26.65;61.38;101908.69;7383253;19;20038;-78
2022/07/24 08:13:33;;;;;;;6.47;3.70;;;;;;;26.86;60.24;101913.28;7381438;19;20019;-78
2022/07/24 08:16:04;;;;;;;6.07;3.90;;;;;;;26.16;61.17;101909.53;7382808;19;20519;-78
2022/07/24 08:18:35;;;;;;;8.10;3.90;;;;;;;25.98;58.34;101911.97;7379416;19;20042;-77
2022/07/24 08:21:06;;;;;;;7.78;3.85;;;;;;;26.03;58.99;101917.13;7380988;19;20018;-79
2022/07/24 08:23:39;;;;;;;8.60;4.03;;;;;;;26.14;58.91;101917.66;7381709;19;20007;-78
2022/07/24 08:26:10;;;;;;;7.85;4.10;;;;;;;26.63;57.81;101911.44;7381840;19;20039;-78
2022/07/24 08:28:41;;;;;;;6.63;3.97;;;;;;;26.03;59.00;101919.84;7374960;19;20043;-78
2022/07/24 08:31:14;;;;;;;9.65;4.22;;;;;;;26.01;58.41;101916.31;7378369;19;20011;-78
2022/07/24 08:33:44;;;;;;;9.45;4.55;;;;;;;26.73;56.45;101917.38;7377475;19;20074;-78
2022/07/24 08:36:14;;;;;;;8.18;4.03;;;;;;;27.51;56.90;101917.94;7375568;19;20462;-79
2022/07/24 08:38:51;;;;;;;7.00;4.25;;;;;;;27.51;54.77;101911.66;7380586;19;20027;-77
2022/07/24 08:41:21;;;;;;;6.97;3.63;;;;;;;27.01;55.46;101907.34;7378025;19;20246;-76
2022/07/24 08:43:56;;;;;;;8.18;4.10;;;;;;;26.67;56.21;101901.44;7379017;19;20191;-78
2022/07/24 08:46:29;;;;;;;8.05;4.15;;;;;;;27.20;56.84;101901.22;7377674;19;20481;-78
2022/07/24 08:49:09;;;;;;;7.60;4.00;;;;;;;26.85;55.29;101906.16;7375529;19;20014;-79
2022/07/24 08:51:42;;;;;;;8.05;4.07;;;;;;;27.14;54.20;101901.47;7378628;19;20007;-77
2022/07/24 08:54:18;;;;;;;7.88;3.80;;;;;;;27.44;53.51;101900.25;7372588;19;20054;-78
2022/07/24 08:56:51;;;;;;;8.50;4.45;;;;;;;27.23;53.70;101898.41;7380226;19;20029;-77
2022/07/24 08:59:23;;;;;;;7.43;4.00;;;;;;;26.65;53.73;101897.94;7376468;19;20006;-77
2022/07/24 09:01:56;;;;;;;9.88;4.20;;;;;;;26.64;55.55;101899.75;7378188;19;20010;-79
2022/07/24 09:04:41;;;;;;;7.55;4.07;;;;;;;27.74;54.33;101899.97;7378561;19;20230;-77
2022/07/24 09:07:14;;;;;;;6.93;3.83;;;;;;;27.42;52.79;101896.75;7377936;19;20010;-76
2022/07/24 09:10:01;;;;;;;7.18;3.92;;;;;;;27.08;53.87;101890.94;7375675;19;20151;-79
2022/07/24 09:12:38;;;;;;;6.22;3.88;;;;;;;27.08;55.85;101893.63;7377597;19;20494;-79
2022/07/24 09:15:19;;;;;;;7.88;3.85;;;;;;;27.31;54.67;101888.22;7374921;19;20031;-78
2022/07/24 09:17:57;;;;;;;7.55;4.68;;;;;;;26.94;55.38;101899.53;7373626;19;20023;-77
2022/07/24 09:20:29;;;;;;;7.53;3.92;;;;;;;26.67;55.08;101896.06;7377493;19;20021;-77
2022/07/24 09:23:00;;;;;;;;;;;;;;;27.28;55.18;101893.72;7377560;19;20082;-77
2022/07/24 09:25:43;;;;;;;7.80;4.07;;;;;;;27.47;54.70;101886.66;7377590;19;19929;-76
2022/07/24 09:28:15;;;;;;;7.15;4.05;;;;;;;27.98;53.15;101889.03;7375415;19;20094;-78
2022/07/24 09:30:51;;;;;;;7.78;3.83;;;;;;;28.18;52.59;101892.66;7375746;19;20011;-78
2022/07/24 09:33:24;;;;;;;9.45;4.55;;;;;;;27.90;51.77;101893.88;7376760;19;20649;-79
2022/07/24 09:35:55;;;;;;;8.63;4.20;;;;;;;28.10;50.74;101884.03;7378075;19;20043;-79
2022/07/24 09:38:27;;;;;;;7.47;4.40;;;;;;;28.20;51.22;101886.25;7378475;19;20420;-78
2022/07/24 09:41:01;;;;;;;8.93;3.85;;;;;;;28.54;51.28;101882.97;7378434;19;20014;-79
2022/07/24 09:43:34;;;;;;;7.05;4.20;;;;;;;28.08;51.20;101881.41;7378912;19;20014;-78
2022/07/24 09:46:07;;;;;;;6.45;3.88;;;;;;;28.26;52.04;101880.63;7377915;19;20045;-77
2022/07/24 09:48:40;;;;;;;9.25;4.18;;;;;;;28.54;51.05;101874.88;7379773;19;20086;-77
2022/07/24 09:51:18;;;;;;;7.47;3.92;;;;;;;28.26;51.35;101877.06;7380950;19;20003;-77
2022/07/24 09:53:54;;;;;;;8.90;4.32;;;;;;;28.25;50.16;101884.28;7372519;19;20010;-76
2022/07/24 09:56:28;;;;;;;7.47;4.20;;;;;;;27.95;51.19;101881.06;7379074;19;20019;-79
2022/07/24 09:59:00;;;;;;;7.90;3.80;;;;;;;28.25;49.71;101881.56;7378342;19;20010;-77
2022/07/24 10:01:31;;;;;;;8.20;3.83;;;;;;;27.95;50.50;101883.78;7380158;19;20052;-77
2022/07/24 10:04:02;;;;;;;6.20;3.90;;;;;;;28.57;49.82;101879.25;7378182;19;20011;-78
2022/07/24 10:06:33;;;;;;;7.35;3.88;;;;;;;28.86;48.59;101881.53;7377538;19;20045;-77
2022/07/24 10:09:05;;;;;;;8.07;4.22;;;;;;;28.99;50.12;101884.53;7378153;19;20014;-77
2022/07/24 10:11:44;;;;;;;8.10;3.78;;;;;;;29.25;49.07;101872.44;7379590;19;20018;-77
2022/07/24 10:14:15;;;;;;;7.38;3.90;;;;;;;28.93;47.93;101865.91;7378002;19;20023;-76
2022/07/24 10:16:57;;;;;;;6.38;3.60;;;;;;;29.11;47.36;101861.47;7378878;19;20018;-77
2022/07/24 10:19:49;;;;;;;9.35;3.90;;;;;;;28.55;47.62;101864.97;7375276;19;20018;-77
2022/07/24 10:22:22;;;;;;;7.60;3.73;;;;;;;28.96;47.81;101866.66;7379773;19;20074;-76
2022/07/24 10:25:06;;;;;;;5.20;3.38;;;;;;;28.98;46.39;101857.59;7375604;19;20038;-77
2022/07/24 10:27:42;;;;;;;7.28;3.63;;;;;;;29.12;47.42;101865.91;7377965;19;20014;-77
2022/07/24 10:30:13;;;;;;;7.93;3.90;;;;;;;29.29;48.55;101863.25;7373905;19;20445;-75
2022/07/24 10:32:44;;;;;;;8.98;4.13;;;;;;;29.04;48.41;101862.72;7377018;19;20828;-77
2022/07/24 10:35:19;;;;;;;6.50;3.53;;;;;;;29.04;47.60;101863.59;7377331;19;20010;-77
2022/07/24 10:37:58;;;;;;;6.88;4.00;;;;;;;29.18;48.05;101854.78;7374584;19;20010;-79
2022/07/24 10:40:36;;;;;;;8.18;4.10;;;;;;;29.01;48.00;101861.03;7372557;19;20023;-76
2022/07/24 10:43:27;;;;;;;8.25;4.40;;;;;;;29.29;49.32;101858.72;7372775;19;20019;-77
2022/07/24 10:46:14;;;;;;;9.63;4.45;;;;;;;29.26;49.12;101856.16;7375794;19;20006;-77
2022/07/24 10:48:48;;;;;;;7.18;3.75;;;;;;;30.06;47.46;101846.81;7358368;19;20019;-76
2022/07/24 10:51:24;;;;;;;7.65;4.38;;;;;;;29.70;46.75;101846.84;7364460;19;20009;-76
2022/07/24 10:53:57;;;;;;;7.60;4.18;;;;;;;30.32;48.60;101840.84;7358698;19;20688;-77
2022/07/24 10:56:30;;;;;;;7.90;4.00;;;;;;;29.82;45.57;101847.09;7361814;19;20010;-77
2022/07/24 10:59:07;;;;;;;8.60;3.90;;;;;;;30.19;46.71;101837.94;7364321;19;20014;-76
2022/07/24 11:01:44;;;;;;;7.97;4.07;;;;;;;30.04;46.08;101849.59;7361882;19;20006;-78
2022/07/24 11:04:30;;;;;;;10.02;4.68;;;;;;;29.52;46.27;101844.09;7362514;19;20014;-78
2022/07/24 11:07:11;;;;;;;8.52;4.22;;;;;;;29.69;46.15;101839.69;7365197;19;20024;-77
2022/07/24 11:10:07;;;;;;;7.20;4.15;;;;;;;29.41;47.15;101838.31;7363616;19;20013;-75
2022/07/24 11:12:47;;;;;;;9.95;4.40;;;;;;;29.80;46.85;101831.88;7360893;19;20491;-77
2022/07/24 11:18:18;;;;;;;6.78;3.92;;;;;;;29.61;45.90;101837.34;7362295;19;20039;-75
2022/07/24 11:20:48;;;;;;;7.45;4.10;;;;;;;30.07;46.08;101835.03;7363652;19;20025;-76
2022/07/24 11:23:22;;;;;;;6.95;3.97;;;;;;;29.86;46.23;101837.84;7362635;19;20076;-77
2022/07/24 11:25:52;;;;;;;6.97;4.18;;;;;;;29.82;44.92;101833.56;7364515;19;20517;-77
2022/07/24 11:28:22;;;;;;;8.23;3.83;;;;;;;30.32;44.80;101821.91;7362221;19;20019;-77
2022/07/24 11:30:55;;;;;;;9.50;4.60;;;;;;;30.26;44.61;101831.22;7363847;19;20014;-76
2022/07/24 11:33:25;;;;;;;8.10;4.35;;;;;;;30.67;45.25;101824.56;7362532;19;20020;-76
2022/07/24 11:35:55;;;;;;;7.85;4.38;;;;;;;29.99;44.82;101819.16;7367843;19;20498;-77
2022/07/24 11:38:31;;;;;;;8.13;3.92;;;;;;;29.70;45.59;101831.50;7376529;19;20010;-76
2022/07/24 11:41:07;;;;;;;9.80;4.35;;;;;;;30.01;44.83;101817.28;7381945;19;20015;-74
2022/07/24 11:43:38;;;;;;;8.07;4.35;;;;;;;30.02;46.05;101821.75;7379215;19;20042;-74